createdAt,value
2023-04-02T00:00:09.776Z,64.93
2023-04-02T00:02:55.155Z,64.81
2023-04-02T00:05:31.416Z,63.70
2023-04-02T00:08:03.706Z,65.01
2023-04-02T00:10:40.661Z,65.04
2023-04-02T00:13:18.257Z,65.17
2023-04-02T00:15:49.758Z,65.92
2023-04-02T00:18:18.334Z,64.19
2023-04-02T00:20:48.937Z,65.80
2023-04-02T00:23:16.105Z,67.15
2023-04-02T00:25:45.764Z,66.25
2023-04-02T00:28:18.348Z,67.20
2023-04-02T00:30:56.548Z,67.41
2023-04-02T00:33:26.086Z,65.92
2023-04-02T00:35:53.235Z,66.09
2023-04-02T00:38:26.857Z,66.62
2023-04-02T00:40:56.920Z,65.31
2023-04-02T00:43:25.469Z,65.94
2023-04-02T00:45:55.732Z,66.30
2023-04-02T00:48:48.634Z,65.35
2023-04-02T00:51:24.987Z,65.81
2023-04-02T00:53:53.262Z,66.18
2023-04-02T00:56:26.519Z,66.14
2023-04-02T00:58:55.175Z,65.15
2023-04-02T01:01:25.453Z,65.72
2023-04-02T01:04:00.127Z,66.18
2023-04-02T01:06:37.823Z,65.66
2023-04-02T01:09:04.570Z,66.51
2023-04-02T01:12:02.195Z,67.90
2023-04-02T01:15:04.133Z,68.56
2023-04-02T01:17:43.040Z,69.44
2023-04-02T01:20:31.889Z,69.56
2023-04-02T01:23:08.232Z,70.23
2023-04-02T01:25:35.790Z,70.16
2023-04-02T01:28:29.793Z,70.38
2023-04-02T01:30:57.232Z,69.60
2023-04-02T01:33:29.632Z,69.58
2023-04-02T01:36:09.115Z,69.54
2023-04-02T01:38:46.855Z,69.98
2023-04-02T01:41:27.579Z,70.53
2023-04-02T01:43:59.124Z,70.89
2023-04-02T01:46:32.345Z,69.64
2023-04-02T01:49:04.675Z,70.00
2023-04-02T01:51:33.634Z,70.12
2023-04-02T01:54:02.464Z,69.52
2023-04-02T01:56:30.778Z,69.76
2023-04-02T01:58:58.205Z,69.88
2023-04-02T02:01:32.153Z,70.36
2023-04-02T02:03:59.532Z,70.64
2023-04-02T02:06:26.409Z,70.74
2023-04-02T02:09:04.336Z,70.75
2023-04-02T02:11:32.565Z,70.89
2023-04-02T02:14:01.138Z,70.81
2023-04-02T02:16:29.275Z,70.97
2023-04-02T02:19:03.280Z,70.81
2023-04-02T02:21:39.901Z,70.90
2023-04-02T02:24:27.363Z,70.91
2023-04-02T02:27:05.061Z,70.86
2023-04-02T02:29:32.165Z,71.16
2023-04-02T02:31:59.174Z,71.51
2023-04-02T02:34:32.008Z,71.26
2023-04-02T02:37:29.554Z,71.09
2023-04-02T02:40:00.168Z,70.99
2023-04-02T02:42:36.324Z,70.81
2023-04-02T02:45:05.381Z,71.16
2023-04-02T02:47:34.346Z,71.09
2023-04-02T02:50:04.194Z,71.48
2023-04-02T02:52:32.980Z,71.41
2023-04-02T02:55:04.815Z,71.28
2023-04-02T02:57:34.229Z,71.50
2023-04-02T03:00:01.040Z,71.74
2023-04-02T03:02:29.272Z,71.73
2023-04-02T03:04:56.537Z,72.04
2023-04-02T03:07:25.777Z,72.25
2023-04-02T03:10:07.451Z,72.03
2023-04-02T03:12:40.289Z,72.15
2023-04-02T03:15:23.503Z,72.62
2023-04-02T03:18:03.233Z,72.46
2023-04-02T03:20:49.989Z,72.75
2023-04-02T03:23:36.908Z,73.18
2023-04-02T03:26:23.516Z,73.14
2023-04-02T03:29:00.186Z,73.37
2023-04-02T03:31:32.419Z,73.66
2023-04-02T03:34:01.940Z,73.80
2023-04-02T03:36:30.981Z,73.54
2023-04-02T03:39:44.872Z,73.76
2023-04-02T03:42:16.142Z,73.91
2023-04-02T03:44:47.333Z,74.30
2023-04-02T03:47:27.350Z,74.27
2023-04-02T03:50:13.062Z,74.39
2023-04-02T03:52:40.072Z,74.84
2023-04-02T03:55:16.156Z,74.97
2023-04-02T03:58:01.677Z,75.08
2023-04-02T04:00:36.301Z,75.18
2023-04-02T04:03:28.846Z,75.26
2023-04-02T04:06:03.501Z,75.07
2023-04-02T04:09:09.342Z,74.81
2023-04-02T04:11:43.950Z,73.55
2023-04-02T04:14:19.459Z,73.72
2023-04-02T04:17:15.688Z,73.97
2023-04-02T04:20:00.010Z,73.71
2023-04-02T04:22:32.057Z,73.90
2023-04-02T04:25:18.287Z,74.24
2023-04-02T04:28:29.878Z,74.54
2023-04-02T04:31:18.010Z,74.70
2023-04-02T04:33:47.544Z,74.96
2023-04-02T04:36:29.195Z,75.21
2023-04-02T04:38:59.883Z,74.98
2023-04-02T04:41:32.070Z,75.17
2023-04-02T04:44:07.290Z,75.83
2023-04-02T04:46:59.886Z,75.32
2023-04-02T04:49:57.467Z,75.52
2023-04-02T04:52:35.960Z,75.99
2023-04-02T04:55:04.544Z,76.51
2023-04-02T04:57:36.058Z,76.36
2023-04-02T05:00:33.772Z,76.49
2023-04-02T05:03:03.777Z,76.46
2023-04-02T05:05:32.131Z,76.43
2023-04-02T05:08:00.967Z,75.77
2023-04-02T05:10:39.436Z,75.36
2023-04-02T05:13:16.658Z,74.63
2023-04-02T05:15:59.449Z,73.82
2023-04-02T05:18:44.605Z,73.32
2023-04-02T05:21:24.282Z,72.65
2023-04-02T05:23:55.335Z,71.43
2023-04-02T05:26:46.468Z,67.12
2023-04-02T05:29:33.485Z,64.98
2023-04-02T05:32:04.960Z,60.34
2023-04-02T05:34:40.526Z,56.02
2023-04-02T05:37:16.541Z,51.79
2023-04-02T05:39:45.466Z,48.68
2023-04-02T05:42:25.479Z,44.98
2023-04-02T05:45:07.222Z,41.91
2023-04-02T05:47:36.152Z,42.40
2023-04-02T05:50:10.566Z,44.67
2023-04-02T05:52:43.432Z,46.36
2023-04-02T05:55:30.932Z,47.03
2023-04-02T05:58:25.554Z,47.54
2023-04-02T06:01:03.681Z,49.39
2023-04-02T06:03:35.539Z,50.79
2023-04-02T06:06:07.050Z,51.79
2023-04-02T06:09:13.642Z,52.41
2023-04-02T06:11:42.703Z,53.03
2023-04-02T06:14:13.308Z,54.43
2023-04-02T06:16:40.378Z,55.62
2023-04-02T06:19:08.991Z,55.78
2023-04-02T06:21:35.962Z,56.93
2023-04-02T06:24:03.802Z,57.62
2023-04-02T06:26:37.252Z,59.41
2023-04-02T06:29:27.925Z,59.90
2023-04-02T06:31:59.516Z,60.58
2023-04-02T06:34:28.114Z,61.18
2023-04-02T06:37:03.847Z,62.04
2023-04-02T06:39:30.847Z,62.24
2023-04-02T06:42:13.706Z,62.85
2023-04-02T06:44:40.718Z,63.55
2023-04-02T06:47:18.694Z,63.70
2023-04-02T06:49:51.861Z,64.18
2023-04-02T06:52:32.348Z,64.48
2023-04-02T06:55:04.055Z,64.62
2023-04-02T06:57:33.066Z,64.58
2023-04-02T06:59:59.963Z,63.29
2023-04-02T07:02:36.364Z,62.42
2023-04-02T07:05:06.463Z,61.66
2023-04-02T07:07:33.383Z,61.93
2023-04-02T07:10:00.872Z,61.46
2023-04-02T07:12:27.963Z,61.10
2023-04-02T07:14:54.918Z,61.11
2023-04-02T07:17:22.463Z,60.27
2023-04-02T07:19:49.850Z,59.84
2023-04-02T07:22:18.365Z,59.79
2023-04-02T07:24:45.775Z,59.60
2023-04-02T07:27:13.387Z,59.46
2023-04-02T07:29:43.249Z,58.70
2023-04-02T07:32:11.861Z,58.10
2023-04-02T07:34:41.926Z,58.21
2023-04-02T07:37:13.349Z,57.64
2023-04-02T07:39:40.826Z,56.90
2023-04-02T07:42:08.180Z,55.68
2023-04-02T07:44:35.104Z,55.77
2023-04-02T07:47:02.105Z,55.69
2023-04-02T07:49:29.160Z,55.85
2023-04-02T07:51:56.006Z,56.47
2023-04-02T07:54:22.912Z,55.46
2023-04-02T07:56:49.889Z,56.86
2023-04-02T07:59:16.949Z,56.75
2023-04-02T08:01:43.950Z,57.09
2023-04-02T08:04:21.578Z,56.20
2023-04-02T08:06:49.196Z,55.64
2023-04-02T08:09:16.647Z,54.64
2023-04-02T08:11:43.651Z,54.06
2023-04-02T08:14:10.536Z,54.58
2023-04-02T08:16:51.186Z,53.11
2023-04-02T08:19:18.387Z,52.76
2023-04-02T08:21:45.530Z,52.15
2023-04-02T08:24:12.540Z,52.43
2023-04-02T08:26:39.380Z,51.80
2023-04-02T08:29:06.618Z,52.93
2023-04-02T08:31:33.411Z,53.94
2023-04-02T08:34:01.814Z,53.10
2023-04-02T08:36:34.676Z,52.33
2023-04-02T08:39:02.085Z,51.65
2023-04-02T08:41:29.045Z,52.46
2023-04-02T08:44:10.644Z,50.98
2023-04-02T08:46:46.432Z,51.64
2023-04-02T08:49:18.297Z,50.37
2023-04-02T08:51:45.718Z,49.81
2023-04-02T08:54:22.790Z,49.05
2023-04-02T08:57:23.165Z,48.53
2023-04-02T08:59:51.273Z,47.25
2023-04-02T09:02:19.385Z,47.29
2023-04-02T09:04:46.370Z,46.91
2023-04-02T09:07:14.962Z,44.79
2023-04-02T09:09:42.114Z,44.04
2023-04-02T09:12:42.307Z,42.99
2023-04-02T09:15:45.073Z,42.33
2023-04-02T09:18:17.454Z,41.97
2023-04-02T09:20:45.020Z,39.83
2023-04-02T09:23:20.296Z,38.18
2023-04-02T09:26:02.862Z,35.66
2023-04-02T09:28:31.797Z,33.56
2023-04-02T09:31:02.274Z,32.58
2023-04-02T09:33:49.252Z,32.85
2023-04-02T09:36:38.151Z,33.27
2023-04-02T09:39:18.626Z,34.09
2023-04-02T09:41:50.282Z,33.06
2023-04-02T09:44:27.373Z,32.82
2023-04-02T09:46:56.448Z,33.31
2023-04-02T09:49:24.908Z,34.34
2023-04-02T09:52:19.478Z,34.89
2023-04-02T09:54:47.849Z,35.59
2023-04-02T09:57:24.158Z,35.44
2023-04-02T10:00:30.472Z,35.31
2023-04-02T10:03:21.958Z,35.39
2023-04-02T10:05:49.191Z,34.19
2023-04-02T10:08:18.233Z,34.50
2023-04-02T10:10:48.672Z,36.29
2023-04-02T10:13:38.733Z,36.64
2023-04-02T10:16:33.479Z,37.38
2023-04-02T10:19:20.276Z,36.33
2023-04-02T10:21:47.376Z,35.46
2023-04-02T10:24:17.529Z,35.15
2023-04-02T10:27:30.021Z,35.46
2023-04-02T10:30:16.464Z,35.18
2023-04-02T10:32:43.408Z,35.77
2023-04-02T10:35:25.537Z,37.50
2023-04-02T10:38:19.743Z,39.16
2023-04-02T10:41:27.263Z,40.49
2023-04-02T10:44:20.130Z,42.44
2023-04-02T10:47:06.291Z,42.73
2023-04-02T10:49:42.270Z,43.44
2023-04-02T10:52:23.140Z,43.77
2023-04-02T10:54:55.229Z,43.35
2023-04-02T10:57:38.636Z,43.43
2023-04-02T11:00:11.528Z,42.91
2023-04-02T11:03:08.339Z,41.71
2023-04-02T11:05:46.619Z,42.29
2023-04-02T11:08:27.683Z,41.28
2023-04-02T11:11:04.776Z,39.98
2023-04-02T11:13:50.931Z,39.71
2023-04-02T11:16:18.089Z,38.70
2023-04-02T11:19:08.354Z,38.00
2023-04-02T11:21:59.993Z,38.63
2023-04-02T11:24:34.332Z,36.37
2023-04-02T11:27:10.046Z,35.38
2023-04-02T11:30:14.046Z,36.08
2023-04-02T11:32:43.279Z,36.64
2023-04-02T11:35:28.274Z,36.13
2023-04-02T11:38:04.645Z,35.91
2023-04-02T11:40:42.143Z,37.62
2023-04-02T11:43:33.640Z,37.93
2023-04-02T11:46:26.974Z,38.63
2023-04-02T11:48:55.513Z,38.15
2023-04-02T11:51:25.667Z,38.47
2023-04-02T11:53:54.136Z,38.41
2023-04-02T11:56:32.596Z,38.53
2023-04-02T11:59:28.946Z,38.50
2023-04-02T12:02:17.450Z,38.27
2023-04-02T12:04:53.236Z,37.42
2023-04-02T12:07:35.202Z,37.64
2023-04-02T12:10:20.795Z,36.90
2023-04-02T12:12:48.794Z,37.34
2023-04-02T12:15:46.024Z,35.92
2023-04-02T12:18:23.455Z,36.40
2023-04-02T12:20:56.170Z,33.66
2023-04-02T12:23:33.853Z,34.00
2023-04-02T12:26:03.866Z,33.57
2023-04-02T12:28:31.684Z,32.95
2023-04-02T12:31:15.231Z,34.34
2023-04-02T12:33:42.592Z,35.21
2023-04-02T12:36:14.856Z,35.77
2023-04-02T12:38:46.716Z,36.67
2023-04-02T12:41:24.489Z,36.85
2023-04-02T12:44:07.336Z,36.85
2023-04-02T12:46:36.526Z,38.60
2023-04-02T12:49:16.450Z,37.60
2023-04-02T12:51:43.366Z,37.20
2023-04-02T12:54:14.882Z,38.13
2023-04-02T12:56:41.787Z,36.14
2023-04-02T12:59:25.235Z,35.67
2023-04-02T13:01:59.246Z,36.05
2023-04-02T13:04:26.807Z,34.69
2023-04-02T13:06:57.121Z,34.34
2023-04-02T13:09:39.011Z,34.31
2023-04-02T13:12:06.156Z,33.52
2023-04-02T13:14:33.139Z,34.62
2023-04-02T13:17:00.035Z,34.50
2023-04-02T13:19:32.025Z,34.14
2023-04-02T13:22:01.957Z,34.05
2023-04-02T13:24:32.843Z,33.83
2023-04-02T13:27:02.427Z,33.05
2023-04-02T13:29:34.307Z,33.76
2023-04-02T13:32:03.238Z,32.64
2023-04-02T13:34:29.982Z,32.96
2023-04-02T13:36:57.784Z,32.72
2023-04-02T13:39:24.882Z,33.17
2023-04-02T13:41:55.944Z,32.62
2023-04-02T13:44:24.234Z,31.76
2023-04-02T13:46:51.187Z,31.56
2023-04-02T13:49:18.703Z,32.16
2023-04-02T13:51:50.819Z,32.11
2023-04-02T13:54:45.440Z,32.60
2023-04-02T13:57:12.653Z,34.09
2023-04-02T13:59:39.531Z,34.43
2023-04-02T14:02:15.518Z,34.67
2023-04-02T14:04:46.312Z,33.93
2023-04-02T14:07:17.402Z,33.56
2023-04-02T14:10:16.614Z,33.80
2023-04-02T14:13:14.356Z,35.30
2023-04-02T14:15:53.248Z,35.63
2023-04-02T14:18:24.108Z,35.89
2023-04-02T14:21:03.790Z,36.71
2023-04-02T14:23:55.703Z,36.52
2023-04-02T14:27:01.987Z,36.81
2023-04-02T14:29:51.280Z,35.18
2023-04-02T14:33:13.873Z,33.86
2023-04-02T14:35:46.295Z,33.91
2023-04-02T14:38:19.137Z,33.61
2023-04-02T14:40:49.862Z,33.62
2023-04-02T14:43:27.835Z,33.74
2023-04-02T14:46:02.979Z,34.38
2023-04-02T14:48:59.338Z,34.31
2023-04-02T14:51:36.976Z,34.06
2023-04-02T14:54:25.526Z,34.29
2023-04-02T14:57:17.269Z,34.81
2023-04-02T15:00:05.680Z,34.67
2023-04-02T15:02:49.282Z,34.60
2023-04-02T15:05:28.638Z,34.21
2023-04-02T15:07:59.917Z,33.26
2023-04-02T15:10:28.864Z,34.28
2023-04-02T15:12:56.190Z,34.80
2023-04-02T15:15:41.619Z,34.62
2023-04-02T15:18:16.692Z,35.29
2023-04-02T15:20:47.285Z,35.09
2023-04-02T15:23:26.149Z,35.65
2023-04-02T15:25:59.087Z,35.77
2023-04-02T15:28:30.544Z,34.75
2023-04-02T15:31:00.093Z,36.00
2023-04-02T15:33:41.236Z,36.15
2023-04-02T15:36:42.158Z,36.62
2023-04-02T15:39:13.067Z,36.92
2023-04-02T15:41:55.064Z,35.76
2023-04-02T15:44:21.895Z,35.39
2023-04-02T15:46:51.671Z,35.14
2023-04-02T15:49:44.342Z,35.44
2023-04-02T15:52:11.779Z,34.65
2023-04-02T15:55:02.581Z,35.03
2023-04-02T15:57:49.344Z,35.79
2023-04-02T16:00:30.706Z,35.17
2023-04-02T16:03:21.601Z,35.02
2023-04-02T16:06:06.861Z,35.32
2023-04-02T16:09:06.011Z,35.72
2023-04-02T16:11:33.973Z,35.04
2023-04-02T16:14:27.672Z,34.70
2023-04-02T16:16:59.914Z,35.32
2023-04-02T16:19:32.737Z,35.24
2023-04-02T16:22:11.530Z,35.21
2023-04-02T16:24:38.449Z,35.50
2023-04-02T16:27:15.410Z,35.06
2023-04-02T16:30:02.532Z,35.10
2023-04-02T16:32:48.493Z,35.78
2023-04-02T16:35:43.290Z,35.58
2023-04-02T16:38:28.046Z,36.56
2023-04-02T16:41:08.665Z,37.46
2023-04-02T16:43:54.905Z,40.33
2023-04-02T16:46:39.862Z,44.35
2023-04-02T16:49:25.689Z,47.50
2023-04-02T16:51:54.922Z,50.87
2023-04-02T16:54:21.867Z,53.42
2023-04-02T16:57:36.314Z,57.63
2023-04-02T17:00:24.704Z,64.05
2023-04-02T17:03:18.951Z,64.32
2023-04-02T17:06:13.518Z,66.87
2023-04-02T17:08:44.845Z,68.06
2023-04-02T17:11:41.961Z,68.07
2023-04-02T17:14:18.812Z,69.43
2023-04-02T17:16:46.706Z,68.52
2023-04-02T17:19:14.999Z,68.79
2023-04-02T17:21:45.562Z,68.42
2023-04-02T17:24:31.173Z,70.28
2023-04-02T17:27:13.044Z,70.43
2023-04-02T17:29:42.477Z,70.40
2023-04-02T17:32:15.311Z,71.17
2023-04-02T17:34:42.252Z,71.52
2023-04-02T17:37:15.798Z,71.61
2023-04-02T17:39:52.268Z,70.55
2023-04-02T17:42:50.956Z,69.67
2023-04-02T17:45:29.901Z,70.26
2023-04-02T17:48:06.551Z,69.35
2023-04-02T17:50:40.480Z,69.79
2023-04-02T17:53:28.535Z,70.63
2023-04-02T17:56:35.264Z,69.90
2023-04-02T17:59:26.678Z,69.89
2023-04-02T18:02:06.429Z,70.31
2023-04-02T18:04:46.297Z,69.00
2023-04-02T18:07:31.864Z,69.29
2023-04-02T18:10:04.877Z,69.27
2023-04-02T18:12:55.746Z,70.25
2023-04-02T18:15:46.504Z,69.13
2023-04-02T18:18:16.080Z,70.27
2023-04-02T18:20:48.491Z,70.85
2023-04-02T18:23:54.494Z,71.21
2023-04-02T18:26:44.709Z,70.27
2023-04-02T18:29:37.800Z,70.30
2023-04-02T18:32:04.755Z,69.32
2023-04-02T18:34:40.532Z,69.10
2023-04-02T18:37:33.938Z,69.28
2023-04-02T18:40:03.463Z,69.30
2023-04-02T18:42:46.871Z,69.44
2023-04-02T18:45:35.555Z,69.55
2023-04-02T18:48:36.528Z,70.23
2023-04-02T18:51:05.221Z,70.95
2023-04-02T18:53:33.632Z,71.50
2023-04-02T18:56:04.992Z,70.51
2023-04-02T18:58:53.706Z,70.69
2023-04-02T19:01:28.092Z,70.46
2023-04-02T19:04:19.981Z,70.38
2023-04-02T19:07:09.230Z,70.61
2023-04-02T19:09:38.786Z,70.85
2023-04-02T19:12:24.444Z,70.88
2023-04-02T19:14:52.506Z,70.74
2023-04-02T19:17:39.425Z,70.52
2023-04-02T19:20:43.841Z,70.49
2023-04-02T19:23:37.776Z,70.65
2023-04-02T19:26:10.154Z,70.36
2023-04-02T19:29:15.694Z,71.42
2023-04-02T19:31:45.655Z,71.36
2023-04-02T19:34:24.485Z,71.64
2023-04-02T19:36:55.239Z,72.20
2023-04-02T19:39:40.190Z,72.20
2023-04-02T19:42:25.446Z,72.09
2023-04-02T19:44:52.305Z,71.38
2023-04-02T19:47:19.162Z,71.20
2023-04-02T19:49:46.302Z,71.32
2023-04-02T19:52:13.291Z,71.76
2023-04-02T19:54:40.253Z,72.21
2023-04-02T19:57:07.347Z,71.64
2023-04-02T19:59:34.250Z,71.50
2023-04-02T20:02:06.127Z,70.87
2023-04-02T20:04:33.013Z,71.48
2023-04-02T20:07:00.282Z,71.97
2023-04-02T20:09:27.214Z,72.33
2023-04-02T20:11:54.060Z,71.65
2023-04-02T20:14:21.058Z,71.59
2023-04-02T20:16:47.896Z,71.58
2023-04-02T20:19:14.807Z,72.84
2023-04-02T20:21:41.827Z,72.98
2023-04-02T20:24:08.815Z,73.28
2023-04-02T20:26:36.360Z,71.85
2023-04-02T20:29:03.385Z,72.66
2023-04-02T20:31:30.563Z,72.70
2023-04-02T20:33:58.373Z,72.42
2023-04-02T20:36:26.027Z,72.76
2023-04-02T20:38:52.981Z,71.43
2023-04-02T20:41:20.066Z,71.05
2023-04-02T20:43:47.021Z,71.38
2023-04-02T20:46:14.068Z,72.39
2023-04-02T20:48:41.228Z,72.44
2023-04-02T20:51:09.086Z,71.72
2023-04-02T20:53:36.638Z,71.85
2023-04-02T20:56:08.424Z,71.70
2023-04-02T20:58:36.166Z,71.65
2023-04-02T21:01:10.079Z,72.17
2023-04-02T21:03:37.202Z,71.52
2023-04-02T21:06:04.392Z,71.45
2023-04-02T21:08:31.340Z,71.33
2023-04-02T21:11:03.131Z,70.64
2023-04-02T21:13:32.031Z,70.45
2023-04-02T21:15:59.240Z,69.91
2023-04-02T21:18:26.192Z,69.57
2023-04-02T21:21:04.118Z,69.85
2023-04-02T21:23:31.643Z,70.23
2023-04-02T21:26:04.701Z,70.63
2023-04-02T21:28:32.346Z,71.34
2023-04-02T21:31:11.004Z,71.16
2023-04-02T21:33:40.014Z,69.86
2023-04-02T21:36:13.796Z,69.76
2023-04-02T21:38:45.846Z,70.97
2023-04-02T21:41:21.587Z,72.00
2023-04-02T21:43:48.890Z,72.66
2023-04-02T21:46:17.259Z,72.89
2023-04-02T21:48:44.297Z,72.86
2023-04-02T21:51:13.120Z,73.36
2023-04-02T21:53:40.436Z,71.99
2023-04-02T21:56:09.907Z,73.01
2023-04-02T21:58:37.062Z,75.33
2023-04-02T22:01:05.574Z,75.00
2023-04-02T22:03:36.042Z,74.45
2023-04-02T22:06:11.560Z,74.39
2023-04-02T22:08:39.348Z,73.45
2023-04-02T22:11:16.760Z,73.37
2023-04-02T22:13:44.848Z,71.55
2023-04-02T22:16:16.311Z,71.76
2023-04-02T22:18:43.767Z,70.91
2023-04-02T22:21:11.776Z,70.21
2023-04-02T22:23:39.278Z,69.76
2023-04-02T22:26:06.427Z,68.88
2023-04-02T22:28:33.525Z,69.50
2023-04-02T22:31:19.978Z,69.62
2023-04-02T22:33:47.298Z,69.89
2023-04-02T22:36:14.894Z,70.24
2023-04-02T22:38:41.790Z,70.94
2023-04-02T22:41:10.376Z,70.20
2023-04-02T22:43:37.682Z,70.40
2023-04-02T22:46:06.314Z,70.19
2023-04-02T22:48:33.433Z,69.48
2023-04-02T22:51:00.730Z,69.60
2023-04-02T22:53:27.774Z,69.70
2023-04-02T22:55:54.803Z,69.93
2023-04-02T22:58:21.763Z,70.30
2023-04-02T23:00:48.681Z,69.87
2023-04-02T23:03:15.808Z,68.54
2023-04-02T23:05:43.071Z,69.42
2023-04-02T23:08:10.006Z,66.91
2023-04-02T23:10:37.134Z,66.92
2023-04-02T23:13:04.152Z,67.90
2023-04-02T23:15:31.162Z,68.13
2023-04-02T23:17:58.044Z,68.40
2023-04-02T23:20:25.022Z,68.50
2023-04-02T23:22:52.145Z,68.40
2023-04-02T23:25:19.023Z,68.95
2023-04-02T23:27:46.180Z,68.30
2023-04-02T23:30:13.121Z,68.92
2023-04-02T23:32:40.135Z,69.22
2023-04-02T23:35:10.044Z,69.25
2023-04-02T23:37:37.027Z,69.12
2023-04-02T23:40:04.371Z,69.51
2023-04-02T23:42:31.209Z,69.02
2023-04-02T23:44:58.098Z,69.25
2023-04-02T23:47:24.979Z,69.64
2023-04-02T23:49:52.002Z,69.60
2023-04-02T23:52:18.930Z,68.95
2023-04-02T23:54:46.031Z,68.78
2023-04-02T23:57:12.990Z,68.50
2023-04-02T23:59:40.461Z,68.40
